Time;durP1;ratioP1;P1;durP2;ratioP2;P2;SDS_P1;SDS_P2;PMS_P1;PMS_P2;Temp;Humidity;BMP_temperature;BMP_pressure;BME280_temperature;BME280_humidity;BME280_pressure;Samples;Min_cycle;Max_cycle;Signal;HPM_P1;HPM_P2
2023/04/02 00:00:16;;;;;;;1.07;0.97;;;5.40;97.30;;;;;;5036588;28;20208;-80
2023/04/02 00:02:55;;;;;;;1.00;0.90;;;5.40;97.30;;;;;;5027481;28;20434;-81
2023/04/02 00:05:28;;;;;;;1.73;1.40;;;5.30;97.30;;;;;;5034859;28;20418;-82
2023/04/02 00:08:09;;;;;;;1.20;1.10;;;5.30;97.30;;;;;;5034523;28;20457;-80
2023/04/02 00:10:54;;;;;;;1.83;1.73;;;5.30;97.30;;;;;;5034771;28;20474;-81
2023/04/02 00:13:32;;;;;;;1.30;1.20;;;5.40;97.30;;;;;;5036333;28;20946;-83
2023/04/02 00:16:02;;;;;;;2.30;1.30;;;5.30;97.30;;;;;;5030527;28;20419;-84
2023/04/02 00:18:27;;;;;;;1.50;1.40;;;5.30;97.30;;;;;;5030480;28;20466;-83
2023/04/02 00:21:06;;;;;;;1.10;1.00;;;5.20;97.30;;;;;;5023881;28;20416;-83
2023/04/02 00:23:39;;;;;;;1.63;1.30;;;5.20;97.30;;;;;;5031873;28;20181;-83
2023/04/02 00:26:39;;;;;;;1.40;1.30;;;5.20;97.30;;;;;;5035766;28;20415;-83
2023/04/02 00:29:06;;;;;;;4.20;1.10;;;5.20;97.30;;;;;;5030585;28;20447;-82
2023/04/02 00:31:33;;;;;;;2.70;1.23;;;5.10;97.30;;;;;;5025875;28;20420;-85
2023/04/02 00:34:01;;;;;;;1.57;1.47;;;5.10;97.30;;;;;;5035364;28;20450;-82
2023/04/02 00:36:29;;;;;;;3.30;3.10;;;5.10;97.30;;;;;;5034071;28;20418;-82
2023/04/02 00:38:58;;;;;;;1.00;0.90;;;5.10;97.30;;;;;;5035194;28;20458;-82
2023/04/02 00:41:28;;;;;;;1.37;1.27;;;5.20;97.30;;;;;;5033800;28;20549;-83
2023/04/02 00:43:58;;;;;;;1.43;1.40;;;5.20;97.30;;;;;;5037994;28;20442;-83
2023/04/02 00:46:45;;;;;;;1.10;1.00;;;5.10;97.30;;;;;;5038637;28;20482;-82
2023/04/02 00:49:25;;;;;;;2.60;2.00;;;5.10;97.30;;;;;;5037683;28;20447;-82
2023/04/02 00:51:56;;;;;;;1.93;1.40;;;5.10;97.30;;;;;;5030921;28;20473;-81
2023/04/02 00:54:25;;;;;;;2.50;2.30;;;5.00;97.30;;;;;;5037682;28;20592;-82
2023/04/02 00:56:54;;;;;;;4.97;1.30;;;5.00;97.30;;;;;;5037685;28;20561;-80
2023/04/02 00:59:35;;;;;;;1.20;1.10;;;5.00;97.30;;;;;;5032497;28;20792;-80
2023/04/02 01:02:13;;;;;;;1.53;1.33;;;5.00;97.30;;;;;;5034961;28;20580;-80
2023/04/02 01:04:40;;;;;;;1.10;1.10;;;5.00;97.30;;;;;;5033845;28;20430;-80
2023/04/02 01:07:08;;;;;;;1.33;1.23;;;5.00;97.30;;;;;;5034549;28;20420;-82
2023/04/02 01:10:04;;;;;;;2.30;1.63;;;4.90;97.30;;;;;;5035764;28;20815;-80
2023/04/02 01:12:49;;;;;;;2.97;1.83;;;4.90;97.30;;;;;;5037079;28;20490;-80
2023/04/02 01:15:25;;;;;;;2.33;1.60;;;4.90;97.30;;;;;;5025881;28;20423;-80
2023/04/02 01:18:16;;;;;;;1.40;1.30;;;4.80;97.30;;;;;;5028991;28;20419;-84
2023/04/02 01:20:52;;;;;;;1.30;1.20;;;4.80;97.30;;;;;;5035684;28;20423;-80
2023/04/02 01:23:34;;;;;;;1.40;1.30;;;4.70;97.30;;;;;;5030844;28;20791;-80
2023/04/02 01:26:31;;;;;;;6.20;2.60;;;4.70;97.30;;;;;;5025613;28;20502;-83
2023/04/02 01:29:44;;;;;;;2.30;2.10;;;4.70;97.30;;;;;;5046114;28;20515;-80
2023/04/02 01:32:17;;;;;;;1.47;1.37;;;4.60;97.30;;;;;;5032024;28;20453;-84
2023/04/02 01:34:45;;;;;;;2.30;2.10;;;4.50;97.30;;;;;;5036052;28;20431;-82
2023/04/02 01:37:35;;;;;;;1.73;1.63;;;4.50;97.30;;;;;;5028969;28;20416;-81
2023/04/02 01:40:42;;;;;;;2.37;2.17;;;4.50;97.30;;;;;;5026516;28;20515;-82
2023/04/02 01:43:44;;;;;;;1.27;1.17;;;4.50;97.30;;;;;;5031635;28;20418;-83
2023/04/02 01:46:31;;;;;;;1.47;1.37;;;4.50;97.30;;;;;;5018508;28;20438;-82
2023/04/02 01:49:01;;;;;;;4.10;2.27;;;4.50;97.30;;;;;;5029917;28;20439;-82
2023/04/02 01:51:32;;;;;;;2.47;2.27;;;4.40;97.30;;;;;;5034207;28;20423;-83
2023/04/02 01:54:01;;;;;;;2.70;2.50;;;4.40;97.30;;;;;;5035886;28;20419;-81
2023/04/02 01:56:29;;;;;;;2.60;2.40;;;4.30;97.30;;;;;;5034058;28;20714;-80
2023/04/02 01:58:56;;;;;;;1.80;1.30;;;4.30;97.30;;;;;;5033866;28;20532;-79
2023/04/02 02:01:27;;;;;;;2.57;2.37;;;4.20;97.30;;;;;;5035337;28;20433;-85
2023/04/02 02:03:53;;;;;;;2.40;2.20;;;4.20;97.30;;;;;;5033303;28;20412;-83
2023/04/02 02:06:19;;;;;;;6.43;1.80;;;4.20;97.30;;;;;;5035657;28;21037;-82
2023/04/02 02:08:55;;;;;;;1.60;1.50;;;4.20;97.30;;;;;;5034281;28;20486;-82
2023/04/02 02:11:25;;;;;;;3.50;2.70;;;4.10;97.30;;;;;;5031441;28;20192;-81
2023/04/02 02:13:59;;;;;;;5.13;2.93;;;4.20;97.30;;;;;;5031840;28;20424;-86
2023/04/02 02:16:27;;;;;;;2.70;2.43;;;4.20;97.30;;;;;;5029638;28;20505;-84
2023/04/02 02:18:58;;;;;;;2.20;1.77;;;4.20;97.30;;;;;;5027522;28;20466;-84
2023/04/02 02:21:44;;;;;;;2.40;2.07;;;4.20;97.30;;;;;;5029080;28;20416;-83
2023/04/02 02:24:27;;;;;;;1.10;1.00;;;4.20;97.30;;;;;;5027502;28;20528;-82
2023/04/02 02:27:15;;;;;;;1.40;1.30;;;4.20;97.30;;;;;;5030999;28;20430;-84
2023/04/02 02:29:41;;;;;;;1.80;1.70;;;4.20;97.30;;;;;;5031984;28;20450;-84
2023/04/02 02:32:09;;;;;;;1.07;0.97;;;4.20;97.30;;;;;;5029434;28;20850;-84
2023/04/02 02:35:21;;;;;;;1.30;1.20;;;4.20;97.30;;;;;;5033933;28;20412;-86
2023/04/02 02:37:55;;;;;;;2.60;2.23;;;4.10;97.30;;;;;;5022992;28;20455;-87
2023/04/02 02:40:28;;;;;;;2.33;2.13;;;4.10;97.30;;;;;;5042233;28;20820;-83
2023/04/02 02:43:00;;;;;;;2.97;1.77;;;4.10;97.30;;;;;;5031277;28;20502;-81
2023/04/02 02:45:31;;;;;;;1.40;1.30;;;4.10;97.30;;;;;;5032804;28;20419;-83
2023/04/02 02:47:58;;;;;;;1.97;1.43;;;4.10;97.30;;;;;;5029990;28;20945;-80
2023/04/02 02:50:30;;;;;;;1.73;1.63;;;4.10;97.30;;;;;;5032427;28;20438;-83
2023/04/02 02:52:58;;;;;;;7.13;3.10;;;4.00;97.30;;;;;;5027749;28;20905;-84
2023/04/02 02:55:33;;;;;;;1.70;1.60;;;4.00;97.30;;;;;;5032773;28;20423;-86
2023/04/02 02:58:05;;;;;;;3.30;2.30;;;4.00;97.30;;;;;;5032852;28;20411;-81
2023/04/02 03:00:32;;;;;;;1.30;1.20;;;4.00;97.30;;;;;;5032503;28;20796;-82
2023/04/02 03:02:58;;;;;;;3.83;3.63;;;4.00;97.30;;;;;;5031331;28;20452;-81
2023/04/02 03:05:28;;;;;;;3.03;2.87;;;4.00;97.30;;;;;;5030403;28;20458;-80
2023/04/02 03:07:56;;;;;;;2.00;1.67;;;3.90;97.30;;;;;;5022556;28;20434;-86
2023/04/02 03:10:40;;;;;;;2.20;1.63;;;3.90;97.30;;;;;;5035375;28;20525;-85
2023/04/02 03:13:23;;;;;;;2.50;2.13;;;3.90;97.30;;;;;;5028739;28;20426;-86
2023/04/02 03:15:55;;;;;;;1.70;1.60;;;3.80;97.30;;;;;;5034606;28;20620;-82
2023/04/02 03:18:32;;;;;;;1.73;1.63;;;3.90;97.30;;;;;;5033353;28;20847;-86
2023/04/02 03:21:24;;;;;;;2.70;2.50;;;3.80;97.30;;;;;;5026912;28;20426;-85
2023/04/02 03:24:12;;;;;;;2.53;1.90;;;3.80;97.30;;;;;;5032229;28;20442;-84
2023/04/02 03:27:06;;;;;;;3.63;2.10;;;3.80;97.30;;;;;;5034438;28;20455;-85
2023/04/02 03:29:40;;;;;;;1.93;1.83;;;3.70;97.30;;;;;;5033662;28;20447;-85
2023/04/02 03:32:25;;;;;;;3.87;3.50;;;3.70;97.30;;;;;;5033205;28;20718;-85
2023/04/02 03:34:55;;;;;;;1.87;1.77;;;3.70;97.30;;;;;;5033777;28;20434;-86
2023/04/02 03:37:45;;;;;;;1.60;1.50;;;3.70;97.30;;;;;;5032960;28;20419;-84
2023/04/02 03:40:40;;;;;;;3.23;1.70;;;3.70;97.30;;;;;;5028168;28;20462;-86
2023/04/02 03:43:24;;;;;;;2.77;2.43;;;3.70;97.30;;;;;;5033683;28;20418;-86
2023/04/02 03:45:55;;;;;;;3.33;3.13;;;3.60;97.30;;;;;;5027447;28;20485;-86
2023/04/02 03:48:31;;;;;;;4.40;2.60;;;3.60;97.30;;;;;;5033777;28;20420;-86
2023/04/02 03:51:05;;;;;;;7.70;2.63;;;3.60;97.30;;;;;;5032535;28;20839;-86
2023/04/02 03:53:31;;;;;;;2.17;2.03;;;3.60;97.30;;;;;;5034203;28;20425;-86
2023/04/02 03:55:58;;;;;;;2.27;2.10;;;3.60;97.30;;;;;;5032419;28;20423;-86
2023/04/02 03:58:33;;;;;;;1.80;1.70;;;3.60;97.30;;;;;;5024051;28;20573;-86
2023/04/02 04:01:18;;;;;;;2.50;1.60;;;3.60;97.30;;;;;;5026190;28;20594;-86
2023/04/02 04:03:49;;;;;;;5.03;1.93;;;3.50;97.30;;;;;;5018450;28;20431;-86
2023/04/02 04:06:30;;;;;;;1.57;1.47;;;3.50;97.30;;;;;;5032426;28;20429;-85
2023/04/02 04:09:10;;;;;;;3.03;2.83;;;3.50;97.30;;;;;;5022555;28;20480;-84
2023/04/02 04:11:42;;;;;;;2.03;1.87;;;3.50;97.30;;;;;;5031983;28;20419;-85
2023/04/02 04:14:14;;;;;;;2.20;1.97;;;3.50;97.30;;;;;;5033514;28;20933;-85
2023/04/02 04:16:56;;;;;;;1.93;1.60;;;3.40;97.30;;;;;;5030983;28;20456;-86
2023/04/02 04:19:32;;;;;;;2.47;2.30;;;3.40;97.30;;;;;;5031945;28;21056;-84
2023/04/02 04:22:18;;;;;;;2.83;2.63;;;3.40;97.30;;;;;;5024709;28;20426;-86
2023/04/02 04:24:47;;;;;;;2.63;1.97;;;3.50;97.30;;;;;;5029396;28;20424;-86
2023/04/02 04:27:47;;;;;;;3.23;2.40;;;3.40;97.30;;;;;;5026883;28;20415;-84
2023/04/02 04:30:24;;;;;;;2.27;2.10;;;3.40;97.30;;;;;;5040633;28;20446;-85
2023/04/02 04:32:57;;;;;;;2.60;2.40;;;3.40;97.30;;;;;;5032541;28;20419;-86
2023/04/02 04:35:44;;;;;;;1.40;1.30;;;3.40;97.30;;;;;;5031921;28;20434;-86
2023/04/02 04:38:20;;;;;;;1.80;1.43;;;3.40;97.30;;;;;;5026157;28;20416;-87
2023/04/02 04:41:11;;;;;;;1.27;1.17;;;3.40;97.30;;;;;;5031651;28;20455;-86
2023/04/02 04:44:01;;;;;;;1.87;1.77;;;3.40;97.30;;;;;;5030550;28;20415;-86
2023/04/02 04:46:50;;;;;;;2.47;2.20;;;3.30;97.30;;;;;;5031821;28;20430;-86
2023/04/02 04:49:15;;;;;;;1.30;1.20;;;3.30;97.30;;;;;;5031228;28;20954;-87
2023/04/02 04:51:57;;;;;;;2.27;2.07;;;3.30;97.30;;;;;;5031913;28;20515;-87
2023/04/02 04:54:25;;;;;;;1.53;1.43;;;3.30;97.30;;;;;;5023042;28;20225;-86
2023/04/02 04:56:56;;;;;;;1.47;1.37;;;3.30;97.30;;;;;;5031049;28;20545;-86
2023/04/02 04:59:32;;;;;;;1.20;1.10;;;3.30;97.30;;;;;;5032360;28;20479;-87
2023/04/02 05:02:13;;;;;;;6.23;2.13;;;3.30;97.30;;;;;;5031451;28;20983;-87
2023/04/02 05:04:41;;;;;;;2.73;2.00;;;3.30;97.30;;;;;;5031347;28;20420;-84
2023/04/02 05:07:19;;;;;;;3.20;2.23;;;3.30;97.30;;;;;;5030911;28;20447;-84
2023/04/02 05:09:59;;;;;;;4.40;1.87;;;3.20;97.30;;;;;;5030942;28;20970;-84
2023/04/02 05:12:59;;;;;;;1.53;1.43;;;3.20;97.30;;;;;;5031468;28;20430;-84
2023/04/02 05:16:06;;;;;;;1.33;1.23;;;3.20;97.30;;;;;;5024867;28;20470;-84
2023/04/02 05:18:40;;;;;;;1.30;1.20;;;3.20;97.30;;;;;;4987657;28;20644;-84
2023/04/02 05:21:56;;;;;;;2.60;2.03;;;3.20;97.30;;;;;;5030652;28;20420;-83
2023/04/02 05:24:35;;;;;;;1.60;1.60;;;3.20;97.30;;;;;;5017241;28;20930;-84
2023/04/02 05:27:11;;;;;;;1.30;1.20;;;3.20;97.30;;;;;;5040698;28;20423;-84
2023/04/02 05:29:41;;;;;;;3.30;3.10;;;3.10;97.30;;;;;;5032710;28;20969;-84
2023/04/02 05:32:18;;;;;;;3.23;1.60;;;3.10;97.30;;;;;;5032123;28;20510;-84
2023/04/02 05:34:48;;;;;;;6.23;1.37;;;3.10;97.30;;;;;;5031037;28;20426;-84
2023/04/02 05:37:20;;;;;;;1.10;1.00;;;3.10;97.30;;;;;;5032481;28;20419;-84
2023/04/02 05:39:55;;;;;;;2.90;1.63;;;3.10;97.30;;;;;;5030472;28;20475;-84
2023/04/02 05:42:28;;;;;;;1.47;1.37;;;3.10;97.30;;;;;;5024570;28;20496;-84
2023/04/02 05:45:12;;;;;;;2.70;2.50;;;3.10;97.30;;;;;;5028889;28;20423;-84
2023/04/02 05:47:41;;;;;;;1.20;1.10;;;3.10;97.30;;;;;;5030072;28;20415;-84
2023/04/02 05:50:06;;;;;;;1.73;1.47;;;3.10;97.30;;;;;;5029841;28;20455;-84
2023/04/02 05:52:38;;;;;;;1.27;1.17;;;3.10;97.30;;;;;;5032405;28;20828;-82
2023/04/02 05:55:15;;;;;;;1.83;1.73;;;3.20;97.30;;;;;;5029730;28;20184;-83
2023/04/02 05:57:48;;;;;;;1.80;1.70;;;3.20;97.30;;;;;;5021676;28;20455;-87
2023/04/02 06:00:34;;;;;;;1.93;1.87;;;3.20;97.30;;;;;;5042471;28;20462;-84
2023/04/02 06:03:06;;;;;;;2.73;2.53;;;3.20;97.30;;;;;;5028024;28;20415;-84
2023/04/02 06:05:38;;;;;;;2.23;2.03;;;3.20;97.30;;;;;;5030286;28;20411;-84
2023/04/02 06:08:14;;;;;;;1.60;1.50;;;3.20;97.30;;;;;;5032803;28;20420;-85
2023/04/02 06:10:50;;;;;;;1.20;1.10;;;3.20;97.30;;;;;;5029867;28;20870;-84
2023/04/02 06:13:18;;;;;;;6.37;2.10;;;3.20;97.30;;;;;;5027261;28;20945;-83
2023/04/02 06:15:44;;;;;;;2.60;2.40;;;3.20;97.30;;;;;;5026440;28;20422;-84
2023/04/02 06:18:20;;;;;;;1.13;1.03;;;3.30;97.30;;;;;;5027508;28;20427;-84
2023/04/02 06:20:46;;;;;;;12.00;1.93;;;3.30;97.30;;;;;;5026564;28;20427;-84
2023/04/02 06:23:33;;;;;;;1.20;1.10;;;3.20;97.30;;;;;;5029222;28;20449;-84
2023/04/02 06:26:17;;;;;;;1.20;1.10;;;3.20;97.30;;;;;;5029434;28;20184;-85
2023/04/02 06:29:00;;;;;;;1.20;1.10;;;3.30;97.30;;;;;;5029313;28;20498;-85
2023/04/02 06:31:37;;;;;;;1.10;1.00;;;3.30;97.30;;;;;;5029667;28;20457;-85
2023/04/02 06:34:06;;;;;;;1.20;1.10;;;3.30;97.30;;;;;;5028567;28;20420;-85
2023/04/02 06:36:32;;;;;;;1.30;1.20;;;3.30;97.30;;;;;;5025208;28;20427;-84
2023/04/02 06:39:06;;;;;;;1.40;1.30;;;3.40;97.30;;;;;;5030262;28;20478;-85
2023/04/02 06:41:31;;;;;;;1.37;1.27;;;3.30;97.30;;;;;;5031628;28;20800;-84
2023/04/02 06:44:02;;;;;;;1.47;1.37;;;3.30;97.30;;;;;;5047879;28;20419;-83
2023/04/02 06:46:38;;;;;;;1.30;1.20;;;3.30;97.30;;;;;;5032033;28;20248;-86
2023/04/02 06:49:24;;;;;;;1.30;1.20;;;3.40;97.30;;;;;;5031423;28;20842;-84
2023/04/02 06:51:53;;;;;;;1.27;1.17;;;3.30;97.30;;;;;;5029794;28;20508;-84
2023/04/02 06:54:19;;;;;;;1.60;1.50;;;3.30;97.30;;;;;;5032130;28;20958;-84
2023/04/02 06:56:53;;;;;;;2.00;1.37;;;3.30;97.30;;;;;;5030552;28;20462;-81
2023/04/02 06:59:18;;;;;;;1.30;1.20;;;3.20;97.30;;;;;;5026871;28;20493;-80
2023/04/02 07:01:52;;;;;;;2.00;1.43;;;3.20;97.30;;;;;;5027149;28;20926;-80
2023/04/02 07:04:20;;;;;;;3.60;1.73;;;3.20;97.30;;;;;;5025236;28;20223;-81
2023/04/02 07:06:45;;;;;;;2.30;2.10;;;3.20;97.30;;;;;;5030818;28;20407;-81
2023/04/02 07:09:11;;;;;;;2.07;1.93;;;3.30;97.30;;;;;;5030294;28;20557;-80
2023/04/02 07:11:37;;;;;;;1.40;1.30;;;3.30;97.30;;;;;;5028893;28;20655;-82
2023/04/02 07:14:03;;;;;;;1.47;1.37;;;3.40;97.30;;;;;;5028318;28;20667;-82
2023/04/02 07:16:31;;;;;;;3.90;1.70;;;3.40;97.30;;;;;;5031887;28;20427;-80
2023/04/02 07:18:57;;;;;;;1.40;1.30;;;3.40;97.30;;;;;;5030401;28;20212;-83
2023/04/02 07:21:25;;;;;;;1.10;1.00;;;3.40;97.30;;;;;;5031091;28;20552;-82
2023/04/02 07:23:51;;;;;;;1.77;1.43;;;3.50;97.30;;;;;;5031412;28;20434;-81
2023/04/02 07:26:19;;;;;;;1.40;1.30;;;3.50;97.30;;;;;;5030987;28;20415;-80
2023/04/02 07:28:44;;;;;;;1.10;1.00;;;3.50;97.30;;;;;;5035492;28;20214;-83
2023/04/02 07:31:23;;;;;;;1.10;1.00;;;3.50;97.30;;;;;;5039692;28;20761;-88
2023/04/02 07:33:49;;;;;;;1.10;1.00;;;3.50;97.30;;;;;;5041891;28;20180;-83
2023/04/02 07:36:17;;;;;;;2.20;1.23;;;3.50;97.30;;;;;;5041991;28;20432;-88
2023/04/02 07:38:43;;;;;;;1.43;1.33;;;3.50;97.30;;;;;;5043591;28;20496;-86
2023/04/02 07:41:09;;;;;;;1.63;1.57;;;3.50;97.30;;;;;;5043488;28;20518;-83
2023/04/02 07:43:35;;;;;;;1.47;1.37;;;3.50;97.30;;;;;;5042064;28;20193;-85
2023/04/02 07:46:01;;;;;;;12.40;1.60;;;3.50;97.30;;;;;;5043541;28;20453;-84
2023/04/02 07:48:27;;;;;;;1.20;1.10;;;3.60;97.30;;;;;;5040496;28;20180;-85
2023/04/02 07:50:52;;;;;;;1.10;1.00;;;3.60;97.30;;;;;;5042494;28;20439;-82
2023/04/02 07:53:36;;;;;;;1.03;0.93;;;3.60;97.30;;;;;;5038498;28;20199;-84
2023/04/02 07:56:03;;;;;;;1.23;1.13;;;3.60;97.30;;;;;;5045598;28;20177;-82
2023/04/02 07:58:30;;;;;;;1.20;1.10;;;3.60;97.30;;;;;;5049249;28;20466;-83
2023/04/02 08:00:56;;;;;;;1.00;0.90;;;3.60;97.30;;;;;;5046657;28;20411;-83
2023/04/02 08:03:22;;;;;;;1.13;1.03;;;3.60;97.30;;;;;;5046887;28;20411;-85
2023/04/02 08:05:53;;;;;;;2.27;2.07;;;3.60;97.30;;;;;;5043591;28;20419;-85
2023/04/02 08:08:20;;;;;;;1.10;1.00;;;3.60;97.30;;;;;;5039477;28;20200;-82
2023/04/02 08:10:46;;;;;;;1.20;1.10;;;3.60;97.30;;;;;;5036291;28;20423;-81
2023/04/02 08:13:12;;;;;;;4.87;1.60;;;3.50;97.30;;;;;;5035883;28;20527;-79
2023/04/02 08:15:38;;;;;;;1.20;1.10;;;3.50;97.30;;;;;;5032986;28;21029;-86
2023/04/02 08:18:03;;;;;;;1.30;1.20;;;3.50;97.30;;;;;;5031834;28;20431;-86
2023/04/02 08:20:29;;;;;;;1.40;1.30;;;3.50;97.30;;;;;;5031569;28;20447;-86
2023/04/02 08:22:55;;;;;;;1.33;1.23;;;3.60;97.30;;;;;;5032382;28;20276;-86
2023/04/02 08:25:20;;;;;;;3.50;3.30;;;3.50;97.30;;;;;;5029281;28;20171;-86
2023/04/02 08:27:47;;;;;;;1.33;1.23;;;3.60;97.30;;;;;;5031787;28;20415;-86
2023/04/02 08:30:13;;;;;;;1.93;1.40;;;3.50;97.30;;;;;;5032769;28;20204;-86
2023/04/02 08:32:40;;;;;;;1.93;1.83;;;3.50;97.30;;;;;;5027225;28;20459;-86
2023/04/02 08:35:07;;;;;;;1.00;0.90;;;3.50;97.30;;;;;;5023699;28;20507;-85
2023/04/02 08:37:32;;;;;;;1.40;1.30;;;3.50;97.30;;;;;;5032987;28;20798;-86
2023/04/02 08:39:58;;;;;;;1.10;1.00;;;3.50;97.30;;;;;;5038343;28;20478;-86
2023/04/02 08:42:38;;;;;;;1.93;1.83;;;3.50;97.30;;;;;;5032056;28;20176;-86
2023/04/02 08:45:20;;;;;;;1.10;1.00;;;3.60;97.30;;;;;;5035714;28;20203;-86
2023/04/02 08:47:50;;;;;;;1.60;1.50;;;3.60;97.30;;;;;;5032900;28;20423;-86
2023/04/02 08:50:26;;;;;;;2.50;1.50;;;3.60;97.30;;;;;;5032849;28;20452;-86
2023/04/02 08:52:52;;;;;;;1.10;1.00;;;3.60;97.30;;;;;;5031312;28;20569;-87
2023/04/02 08:55:25;;;;;;;2.60;1.17;;;3.70;97.30;;;;;;5031907;28;20472;-86
2023/04/02 08:58:12;;;;;;;1.53;1.47;;;3.70;97.30;;;;;;5030752;28;20216;-86
2023/04/02 09:00:43;;;;;;;1.13;1.03;;;3.70;97.30;;;;;;5033017;28;20473;-86
2023/04/02 09:03:12;;;;;;;1.30;1.20;;;3.70;97.30;;;;;;5032910;28;20486;-88
2023/04/02 09:05:42;;;;;;;1.20;1.10;;;3.80;97.30;;;;;;5032607;28;20433;-85
2023/04/02 09:08:28;;;;;;;1.30;1.20;;;3.80;97.30;;;;;;5030669;28;20407;-86
2023/04/02 09:11:16;;;;;;;1.37;1.27;;;3.90;97.30;;;;;;5029916;28;20442;-85
2023/04/02 09:13:45;;;;;;;1.10;1.00;;;3.90;97.30;;;;;;5027959;28;20863;-87
2023/04/02 09:16:16;;;;;;;4.73;1.27;;;3.90;97.30;;;;;;5024522;28;20415;-86
2023/04/02 09:18:43;;;;;;;1.00;0.90;;;3.90;97.30;;;;;;5028929;28;20469;-87
2023/04/02 09:21:20;;;;;;;1.20;1.10;;;3.90;97.30;;;;;;5023884;28;20411;-87
2023/04/02 09:23:46;;;;;;;1.40;1.30;;;3.90;97.30;;;;;;5023054;28;20439;-86
2023/04/02 09:26:22;;;;;;;1.00;0.90;;;3.90;97.30;;;;;;5031948;28;20414;-86
2023/04/02 09:28:50;;;;;;;6.40;2.80;;;4.00;97.30;;;;;;5025743;28;21090;-86
2023/04/02 09:31:19;;;;;;;1.10;1.00;;;4.00;97.30;;;;;;5031380;28;20407;-86
2023/04/02 09:33:48;;;;;;;1.20;1.10;;;4.00;97.30;;;;;;5030519;28;20778;-86
2023/04/02 09:36:38;;;;;;;1.10;1.00;;;4.10;97.30;;;;;;5032175;28;20438;-86
2023/04/02 09:39:15;;;;;;;1.40;1.30;;;4.10;97.30;;;;;;5032213;28;21039;-86
2023/04/02 09:41:41;;;;;;;1.50;1.40;;;4.10;97.30;;;;;;5024733;28;20418;-87
2023/04/02 09:44:22;;;;;;;1.20;1.10;;;4.10;97.30;;;;;;5031234;28;20415;-86
2023/04/02 09:46:54;;;;;;;1.30;1.20;;;4.10;97.30;;;;;;5030385;28;20477;-86
2023/04/02 09:49:23;;;;;;;1.83;1.73;;;4.00;97.30;;;;;;5031118;28;20529;-86
2023/04/02 09:52:07;;;;;;;1.63;1.53;;;4.10;97.30;;;;;;5030410;28;20469;-86
2023/04/02 09:54:40;;;;;;;1.50;1.40;;;4.10;97.30;;;;;;5038896;28;20429;-87
2023/04/02 09:57:23;;;;;;;1.20;1.10;;;4.10;97.30;;;;;;5039296;28;20424;-86
2023/04/02 10:00:10;;;;;;;1.10;1.00;;;4.20;97.30;;;;;;5040685;28;21028;-86
2023/04/02 10:02:36;;;;;;;1.80;1.70;;;4.20;97.30;;;;;;5039357;28;20411;-90
2023/04/02 10:05:04;;;;;;;3.80;3.13;;;4.20;97.30;;;;;;5030263;28;20418;-85
2023/04/02 10:07:38;;;;;;;1.30;1.20;;;4.20;97.30;;;;;;5028402;28;20181;-86
2023/04/02 10:10:41;;;;;;;1.63;1.47;;;4.30;97.30;;;;;;5026751;28;20471;-86
2023/04/02 10:13:30;;;;;;;1.10;1.00;;;4.30;97.30;;;;;;5031284;28;20494;-86
2023/04/02 10:16:13;;;;;;;1.60;1.50;;;4.40;97.30;;;;;;5020080;28;20420;-86
2023/04/02 10:18:45;;;;;;;1.20;1.10;;;4.30;97.30;;;;;;5028155;28;20479;-88
2023/04/02 10:21:15;;;;;;;1.20;1.10;;;4.30;97.30;;;;;;5029198;28;20434;-86
2023/04/02 10:23:41;;;;;;;3.27;1.20;;;4.40;97.30;;;;;;5031174;28;20416;-86
2023/04/02 10:26:19;;;;;;;1.63;1.27;;;4.40;97.30;;;;;;5030678;28;20407;-86
2023/04/02 10:29:13;;;;;;;1.13;1.07;;;4.40;97.30;;;;;;5030282;28;20279;-86
2023/04/02 10:32:00;;;;;;;1.30;1.20;;;4.40;97.30;;;;;;5029847;28;20419;-86
2023/04/02 10:34:55;;;;;;;1.30;1.20;;;4.30;97.30;;;;;;5021226;28;20451;-86
2023/04/02 10:37:45;;;;;;;1.20;1.10;;;4.30;97.30;;;;;;5028879;28;20415;-86
2023/04/02 10:40:29;;;;;;;1.33;1.23;;;4.30;97.30;;;;;;5026698;28;20911;-86
2023/04/02 10:43:35;;;;;;;1.70;1.60;;;4.40;97.30;;;;;;5032099;28;20411;-86
2023/04/02 10:46:22;;;;;;;2.93;1.43;;;4.40;97.30;;;;;;5021918;28;20947;-86
2023/04/02 10:49:12;;;;;;;1.10;1.10;;;4.60;97.30;;;;;;5028419;28;20520;-82
2023/04/02 10:51:47;;;;;;;1.53;1.43;;;4.70;97.30;;;;;;5025339;28;20435;-87
2023/04/02 10:54:51;;;;;;;1.20;1.10;;;4.80;97.30;;;;;;5018901;28;20422;-86
2023/04/02 10:57:51;;;;;;;1.00;0.90;;;4.80;97.30;;;;;;5025809;28;20762;-83
2023/04/02 11:00:29;;;;;;;3.90;1.70;;;4.90;97.30;;;;;;5018519;28;20584;-86
2023/04/02 11:03:33;;;;;;;1.10;1.00;;;4.90;97.30;;;;;;5028928;28;20926;-85
2023/04/02 11:06:04;;;;;;;2.10;1.50;;;5.00;97.30;;;;;;5028566;28;20407;-86
2023/04/02 11:08:44;;;;;;;1.10;1.00;;;4.90;97.30;;;;;;5030306;28;20439;-85
2023/04/02 11:11:13;;;;;;;1.10;1.00;;;5.00;97.30;;;;;;5029121;28;20514;-85
2023/04/02 11:13:44;;;;;;;1.20;1.10;;;5.00;97.30;;;;;;5029283;28;20967;-84
2023/04/02 11:16:16;;;;;;;1.20;1.10;;;5.10;97.30;;;;;;5026908;28;20423;-86
2023/04/02 11:18:43;;;;;;;1.10;1.00;;;5.10;97.30;;;;;;5030181;28;20459;-86
2023/04/02 11:21:40;;;;;;;1.20;1.10;;;5.20;97.30;;;;;;5017538;28;20763;-86
2023/04/02 11:24:42;;;;;;;1.10;1.00;;;5.20;97.30;;;;;;5029031;28;20465;-87
2023/04/02 11:27:10;;;;;;;1.20;1.10;;;5.20;97.30;;;;;;5028222;28;20957;-86
2023/04/02 11:29:54;;;;;;;1.00;0.90;;;5.30;97.30;;;;;;5031876;28;20435;-86
2023/04/02 11:32:23;;;;;;;1.10;1.00;;;5.30;97.30;;;;;;5028117;28;20426;-83
2023/04/02 11:34:49;;;;;;;1.30;1.23;;;5.40;97.30;;;;;;5051336;28;20430;-82
2023/04/02 11:37:41;;;;;;;1.00;0.90;;;5.40;97.30;;;;;;5037347;28;20422;-82
2023/04/02 11:40:12;;;;;;;2.47;2.33;;;5.60;97.30;;;;;;5037044;28;20220;-82
2023/04/02 11:42:45;;;;;;;1.20;1.10;;;5.60;97.30;;;;;;5036992;28;20426;-84
2023/04/02 11:45:22;;;;;;;5.07;1.33;;;5.70;97.30;;;;;;5039435;28;20443;-83
2023/04/02 11:48:00;;;;;;;1.03;1.03;;;5.80;97.30;;;;;;5037412;28;20430;-83
2023/04/02 11:50:41;;;;;;;2.60;2.00;;;5.80;97.30;;;;;;5034904;28;20862;-83
2023/04/02 11:53:09;;;;;;;1.20;1.10;;;6.00;97.30;;;;;;5036951;28;20414;-82
2023/04/02 11:55:39;;;;;;;2.73;1.47;;;6.10;97.30;;;;;;5036158;28;20415;-87
2023/04/02 11:58:42;;;;;;;2.07;1.70;;;6.40;97.30;;;;;;5035812;28;20510;-82
2023/04/02 12:01:23;;;;;;;1.87;1.73;;;6.50;97.30;;;;;;5053583;28;20502;-82
2023/04/02 12:04:14;;;;;;;1.73;1.60;;;6.60;96.50;;;;;;5034181;28;20419;-85
2023/04/02 12:06:46;;;;;;;2.90;1.40;;;6.50;95.80;;;;;;5035187;28;20423;-84
2023/04/02 12:09:23;;;;;;;1.47;1.20;;;6.50;96.70;;;;;;5033101;28;20463;-86
2023/04/02 12:11:51;;;;;;;2.50;1.40;;;6.50;96.50;;;;;;5033873;28;20454;-83
2023/04/02 12:14:40;;;;;;;1.43;1.40;;;6.60;97.10;;;;;;5034338;28;20407;-87
2023/04/02 12:17:33;;;;;;;2.40;2.20;;;6.60;96.90;;;;;;5033043;28;20426;-83
2023/04/02 12:20:20;;;;;;;1.53;1.20;;;6.50;96.70;;;;;;5033018;28;20831;-84
2023/04/02 12:22:52;;;;;;;1.40;1.30;;;6.50;96.40;;;;;;5030067;28;20438;-83
2023/04/02 12:25:39;;;;;;;1.03;0.93;;;6.40;95.70;;;;;;5030908;28;20416;-84
2023/04/02 12:28:19;;;;;;;0.90;0.80;;;6.30;96.60;;;;;;5033188;28;20411;-84
2023/04/02 12:30:46;;;;;;;1.30;1.20;;;6.30;97.30;;;;;;5026306;28;20481;-84
2023/04/02 12:33:26;;;;;;;1.00;0.90;;;6.10;97.30;;;;;;5031789;28;20407;-86
2023/04/02 12:35:56;;;;;;;1.33;1.20;;;6.10;97.30;;;;;;5032864;28;20411;-84
2023/04/02 12:38:23;;;;;;;2.70;1.10;;;6.10;97.30;;;;;;5024214;28;20455;-86
2023/04/02 12:41:20;;;;;;;2.63;1.50;;;6.10;97.30;;;;;;5031854;28;20426;-86
2023/04/02 12:43:45;;;;;;;1.37;1.27;;;6.10;97.30;;;;;;5028816;28;20411;-85
2023/04/02 12:46:13;;;;;;;1.10;1.00;;;6.20;97.30;;;;;;5032609;28;20803;-85
2023/04/02 12:48:39;;;;;;;1.17;1.07;;;6.20;97.30;;;;;;5032939;28;20223;-84
2023/04/02 12:51:05;;;;;;;3.53;2.70;;;6.20;97.30;;;;;;5034349;28;20423;-84
2023/04/02 12:53:36;;;;;;;1.13;1.03;;;6.20;97.30;;;;;;5032694;28;20423;-84
2023/04/02 12:56:02;;;;;;;1.07;0.97;;;6.30;97.30;;;;;;5032771;28;21044;-86
2023/04/02 12:58:41;;;;;;;1.10;1.00;;;6.40;97.30;;;;;;5032352;28;20461;-84
2023/04/02 13:01:21;;;;;;;1.30;1.20;;;6.40;97.20;;;;;;5033702;28;20411;-85
2023/04/02 13:04:06;;;;;;;1.43;1.23;;;6.50;96.70;;;;;;5032687;28;20429;-85
2023/04/02 13:06:33;;;;;;;1.10;1.00;;;6.60;97.30;;;;;;5020605;28;20412;-85
2023/04/02 13:09:00;;;;;;;1.00;0.90;;;6.80;97.30;;;;;;5030512;28;20473;-83
2023/04/02 13:11:40;;;;;;;1.10;1.00;;;6.90;95.50;;;;;;5032397;28;20412;-84
2023/04/02 13:14:14;;;;;;;1.50;1.40;;;7.00;94.00;;;;;;5034480;28;20415;-84
2023/04/02 13:16:39;;;;;;;1.47;1.37;;;7.10;94.30;;;;;;5036415;28;20426;-86
2023/04/02 13:19:23;;;;;;;4.17;2.03;;;7.10;94.80;;;;;;5036505;28;20459;-83
2023/04/02 13:21:48;;;;;;;1.10;1.00;;;7.10;94.60;;;;;;5034124;28;20960;-83
2023/04/02 13:24:32;;;;;;;1.00;0.90;;;7.10;95.30;;;;;;5034549;28;20423;-83
2023/04/02 13:27:01;;;;;;;1.20;1.10;;;6.90;94.80;;;;;;5034402;28;20177;-83
2023/04/02 13:29:32;;;;;;;1.10;1.00;;;6.80;95.20;;;;;;5037803;28;20466;-83
2023/04/02 13:32:03;;;;;;;1.40;1.30;;;6.80;96.20;;;;;;5037998;28;20457;-83
2023/04/02 13:34:32;;;;;;;1.00;0.90;;;6.70;96.00;;;;;;5034499;28;20424;-83
2023/04/02 13:37:00;;;;;;;1.37;1.27;;;6.80;96.60;;;;;;5037218;28;20426;-83
2023/04/02 13:39:26;;;;;;;1.30;1.20;;;6.80;95.60;;;;;;5039609;28;20516;-86
2023/04/02 13:42:07;;;;;;;1.63;1.37;;;6.80;95.10;;;;;;5053975;28;20459;-85